Time;durP1;ratioP1;P1;durP2;ratioP2;P2;SDS_P1;SDS_P2;PMS_P1;PMS_P2;Temp;Humidity;BMP_temperature;BMP_pressure;BME280_temperature;BME280_humidity;BME280_pressure;Samples;Min_cycle;Max_cycle;Signal;HPM_P1;HPM_P2
2021/07/21 00:02:41;;;;;;;6.93;6.22;;;;;;;;;;10361538;28;20036;-68
2021/07/21 00:07:39;;;;;;;6.75;6.13;;;;;;;;;;10361728;28;20048;-68
2021/07/21 00:18:01;;;;;;;8.02;6.30;;;;;;;;;;10360492;28;20071;-67
2021/07/21 00:22:59;;;;;;;11.10;6.80;;;;;;;;;;10360811;28;20477;-67
2021/07/21 00:27:59;;;;;;;9.13;7.00;;;;;;;;;;10360680;28;20047;-67
2021/07/21 00:32:57;;;;;;;7.53;6.80;;;;;;;;;;10359872;28;20060;-67
2021/07/21 00:37:55;;;;;;;9.50;7.43;;;;;;;;;;10359010;28;20079;-68
2021/07/21 00:42:54;;;;;;;12.20;7.75;;;;;;;;;;10358567;28;20048;-67
2021/07/21 00:47:54;;;;;;;9.27;6.75;;;;;;;;;;10359961;28;20056;-67
2021/07/21 00:52:54;;;;;;;8.40;7.57;;;;;;;;;;10359675;28;20036;-68
2021/07/21 00:57:55;;;;;;;8.32;7.35;;;;;;;;;;10358070;28;20063;-67
2021/07/21 01:02:56;;;;;;;11.07;7.28;;;;;;;;;;10357873;28;20044;-68
2021/07/21 01:07:56;;;;;;;9.32;7.45;;;;;;;;;;10359131;28;20044;-67
2021/07/21 01:12:59;;;;;;;9.13;7.53;;;;;;;;;;10357376;28;20496;-66
2021/07/21 01:18:02;;;;;;;12.15;10.90;;;;;;;;;;10357305;28;20052;-67
2021/07/21 01:23:04;;;;;;;10.55;9.32;;;;;;;;;;10357431;28;20054;-67
2021/07/21 01:28:04;;;;;;;12.02;9.07;;;;;;;;;;10357358;28;20044;-67
2021/07/21 01:33:16;;;;;;;10.82;8.50;;;;;;;;;;10356723;28;20060;-67
2021/07/21 01:38:19;;;;;;;10.85;9.13;;;;;;;;;;10356782;28;20432;-67
2021/07/21 01:43:23;;;;;;;13.10;9.32;;;;;;;;;;10356337;28;20052;-67
2021/07/21 01:48:23;;;;;;;11.13;9.27;;;;;;;;;;10357822;28;20091;-67
2021/07/21 01:53:22;;;;;;;11.13;9.30;;;;;;;;;;10356122;28;20048;-66
2021/07/21 01:58:24;;;;;;;15.98;9.45;;;;;;;;;;10357040;28;20040;-66
2021/07/21 02:03:34;;;;;;;9.70;8.65;;;;;;;;;;10355510;28;20055;-67
2021/07/21 02:08:36;;;;;;;12.98;8.40;;;;;;;;;;10356087;28;20048;-63
2021/07/21 02:13:56;;;;;;;11.95;8.90;;;;;;;;;;10355885;28;20044;-63
2021/07/21 02:19:04;;;;;;;11.23;9.38;;;;;;;;;;10355199;28;20560;-64
2021/07/21 02:24:14;;;;;;;16.20;9.85;;;;;;;;;;10355761;28;20079;-63
2021/07/21 02:29:23;;;;;;;12.90;10.45;;;;;;;;;;10357669;28;20055;-63
2021/07/21 02:34:29;;;;;;;12.07;9.70;;;;;;;;;;10357046;28;20052;-63
2021/07/21 02:39:28;;;;;;;12.90;10.70;;;;;;;;;;10357328;28;20441;-63
2021/07/21 02:44:29;;;;;;;13.60;9.77;;;;;;;;;;10355430;28;20036;-63
2021/07/21 02:49:27;;;;;;;13.13;11.38;;;;;;;;;;10356986;28;20493;-63
2021/07/21 02:54:33;;;;;;;14.00;11.23;;;;;;;;;;10355236;28;20056;-64
2021/07/21 02:59:38;;;;;;;13.52;10.88;;;;;;;;;;10355202;28;20052;-63
2021/07/21 03:04:38;;;;;;;11.77;10.63;;;;;;;;;;10356896;28;20052;-63
2021/07/21 03:09:52;;;;;;;;;;;;;;;;;;10357794;28;20413;-63
2021/07/21 03:14:52;;;;;;;17.90;12.02;;;;;;;;;;10362650;28;19935;-63
2021/07/21 03:19:54;;;;;;;14.35;11.75;;;;;;;;;;10361858;28;20080;-63
2021/07/21 03:24:56;;;;;;;15.63;11.00;;;;;;;;;;10364094;28;20059;-63
2021/07/21 03:30:08;;;;;;;15.32;11.55;;;;;;;;;;10361628;28;20496;-63
2021/07/21 03:35:17;;;;;;;17.17;10.77;;;;;;;;;;10361325;28;20070;-63
2021/07/21 03:40:19;;;;;;;13.48;10.43;;;;;;;;;;10361294;28;20048;-64
2021/07/21 03:45:42;;;;;;;11.00;9.77;;;;;;;;;;10369215;27;20077;-63
2021/07/21 03:50:41;;;;;;;14.10;11.00;;;;;;;;;;10426314;27;20073;-63
2021/07/21 03:55:41;;;;;;;13.73;10.85;;;;;;;;;;10444476;27;20078;-63
2021/07/21 04:00:48;;;;;;;12.10;10.90;;;;;;;;;;10425527;27;20070;-63
2021/07/21 04:05:53;;;;;;;15.82;10.95;;;;;;;;;;10443286;27;20055;-63
2021/07/21 04:10:56;;;;;;;16.33;11.93;;;;;;;;;;10444047;27;20046;-64
2021/07/21 04:16:00;;;;;;;13.37;11.97;;;;;;;;;;10424683;27;20051;-63
2021/07/21 04:21:04;;;;;;;12.98;10.05;;;;;;;;;;10424037;27;20062;-63
2021/07/21 04:26:05;;;;;;;12.63;11.20;;;;;;;;;;10424866;27;20053;-63
2021/07/21 04:31:05;;;;;;;15.63;10.88;;;;;;;;;;10442470;27;20508;-63
2021/07/21 04:36:07;;;;;;;19.63;15.10;;;;;;;;;;10443228;27;20067;-64
2021/07/21 04:41:09;;;;;;;15.43;13.20;;;;;;;;;;10442829;27;20047;-64
2021/07/21 04:46:21;;;;;;;16.30;12.57;;;;;;;;;;10423601;27;20482;-64
2021/07/21 04:51:25;;;;;;;14.23;12.23;;;;;;;;;;10424088;27;20530;-64
2021/07/21 04:56:31;;;;;;;13.88;11.40;;;;;;;;;;10442258;27;20082;-63
2021/07/21 05:01:32;;;;;;;16.33;11.82;;;;;;;;;;10441750;27;20051;-63
2021/07/21 05:06:32;;;;;;;14.98;12.45;;;;;;;;;;10423156;27;20047;-64
2021/07/21 05:11:30;;;;;;;15.43;11.82;;;;;;;;;;10422904;27;20047;-63
2021/07/21 05:16:32;;;;;;;21.17;12.10;;;;;;;;;;10441105;27;20191;-63
2021/07/21 05:21:32;;;;;;;15.68;11.73;;;;;;;;;;10440953;27;20051;-63
2021/07/21 05:26:31;;;;;;;18.10;12.32;;;;;;;;;;10422403;27;20039;-63
2021/07/21 05:31:35;;;;;;;22.63;12.43;;;;;;;;;;10421644;27;20066;-64
2021/07/21 05:36:52;;;;;;;17.10;11.88;;;;;;;;;;10448976;27;20098;-63
2021/07/21 05:41:58;;;;;;;17.00;11.82;;;;;;;;;;10422407;27;20058;-63
2021/07/21 05:47:01;;;;;;;15.43;12.27;;;;;;;;;;10421990;27;20133;-63
2021/07/21 05:52:01;;;;;;;17.50;12.23;;;;;;;;;;10422303;27;20047;-63
2021/07/21 05:57:05;;;;;;;19.38;12.07;;;;;;;;;;10422055;28;20047;-63
2021/07/21 06:02:08;;;;;;;15.68;11.57;;;;;;;;;;10440518;28;20039;-63
2021/07/21 06:07:08;;;;;;;14.18;12.32;;;;;;;;;;10421473;28;20676;-64
2021/07/21 06:12:25;;;;;;;16.38;13.95;;;;;;;;;;10446888;27;20051;-63
2021/07/21 06:17:25;;;;;;;15.18;12.02;;;;;;;;;;10421422;28;20057;-63
2021/07/21 06:22:38;;;;;;;12.27;11.02;;;;;;;;;;10421399;28;20597;-64
2021/07/21 06:28:03;;;;;;;18.85;10.77;;;;;;;;;;10436160;28;20488;-63
2021/07/21 06:33:06;;;;;;;15.40;10.18;;;;;;;;;;10421258;28;20066;-63
2021/07/21 06:38:07;;;;;;;18.00;12.15;;;;;;;;;;10421484;28;20079;-63
2021/07/21 06:43:05;;;;;;;18.00;11.93;;;;;;;;;;10440124;27;20070;-63
2021/07/21 06:48:25;;;;;;;10.82;9.73;;;;;;;;;;10447605;27;20047;-63
2021/07/21 06:53:24;;;;;;;14.00;11.20;;;;;;;;;;10428457;27;20621;-64
2021/07/21 06:58:45;;;;;;;15.13;10.90;;;;;;;;;;10439973;27;20082;-63
2021/07/21 07:03:48;;;;;;;19.85;10.57;;;;;;;;;;10447477;27;20043;-63
2021/07/21 07:09:09;;;;;;;13.05;11.15;;;;;;;;;;10437149;27;20071;-63
2021/07/21 07:14:26;;;;;;;12.75;10.75;;;;;;;;;;10447750;27;20431;-63
2021/07/21 07:19:26;;;;;;;13.57;10.60;;;;;;;;;;10446663;27;20078;-63
2021/07/21 07:24:25;;;;;;;16.27;11.40;;;;;;;;;;10445923;27;20051;-64
2021/07/21 07:29:23;;;;;;;14.15;10.90;;;;;;;;;;10445764;27;20043;-63
2021/07/21 07:34:21;;;;;;;15.75;10.05;;;;;;;;;;10445880;27;20423;-64
2021/07/21 07:39:22;;;;;;;15.88;10.48;;;;;;;;;;10445072;27;20431;-62
2021/07/21 07:44:20;;;;;;;18.63;10.05;;;;;;;;;;10444895;27;20054;-64
2021/07/21 07:49:19;;;;;;;13.45;10.18;;;;;;;;;;10426107;27;20043;-63
2021/07/21 07:54:18;;;;;;;12.82;10.05;;;;;;;;;;10443516;27;20039;-63
2021/07/21 07:59:18;;;;;;;10.85;9.75;;;;;;;;;;10444600;27;20043;-64
2021/07/21 08:04:17;;;;;;;15.40;9.95;;;;;;;;;;10444682;27;20393;-64
2021/07/21 08:09:15;;;;;;;11.77;9.68;;;;;;;;;;10444579;27;20039;-63
2021/07/21 08:14:14;;;;;;;11.38;9.70;;;;;;;;;;10444089;27;20043;-64
2021/07/21 08:19:14;;;;;;;10.25;9.25;;;;;;;;;;10443936;27;20130;-63
2021/07/21 08:24:13;;;;;;;13.60;9.55;;;;;;;;;;10444412;27;20415;-64
2021/07/21 08:29:11;;;;;;;18.10;10.10;;;;;;;;;;10444157;27;20048;-64
2021/07/21 08:34:11;;;;;;;14.50;9.70;;;;;;;;;;10442735;27;20062;-63
2021/07/21 08:39:12;;;;;;;15.60;10.52;;;;;;;;;;10443327;27;20089;-64
2021/07/21 08:44:13;;;;;;;16.10;10.10;;;;;;;;;;10442531;27;20054;-64
2021/07/21 08:49:11;;;;;;;13.68;10.13;;;;;;;;;;10442626;27;20062;-63
2021/07/21 08:54:11;;;;;;;14.63;10.02;;;;;;;;;;10442521;27;20050;-64
2021/07/21 08:59:10;;;;;;;12.48;10.02;;;;;;;;;;10442947;27;20094;-63
2021/07/21 09:04:08;;;;;;;14.60;10.02;;;;;;;;;;10442145;27;20043;-64
2021/07/21 09:09:07;;;;;;;14.52;10.32;;;;;;;;;;10442589;27;20054;-63
2021/07/21 09:14:07;;;;;;;15.55;9.80;;;;;;;;;;10442340;27;20353;-64
2021/07/21 09:19:06;;;;;;;15.68;9.68;;;;;;;;;;10440612;27;20523;-64
2021/07/21 09:24:04;;;;;;;11.18;9.68;;;;;;;;;;10441817;27;20042;-64
2021/07/21 09:29:03;;;;;;;10.55;8.15;;;;;;;;;;10441418;27;20048;-63
2021/07/21 09:34:12;;;;;;;14.20;9.00;;;;;;;;;;10440542;27;20083;-63
2021/07/21 09:39:11;;;;;;;14.23;9.32;;;;;;;;;;10440681;27;20094;-63
2021/07/21 09:44:10;;;;;;;11.95;8.85;;;;;;;;;;10441419;27;20083;-64
2021/07/21 09:49:20;;;;;;;9.52;8.57;;;;;;;;;;10441338;27;20476;-63
2021/07/21 09:54:19;;;;;;;11.82;9.25;;;;;;;;;;10440578;27;20043;-63
2021/07/21 09:59:24;;;;;;;13.23;8.18;;;;;;;;;;10440988;27;20085;-63
2021/07/21 10:04:34;;;;;;;11.10;7.95;;;;;;;;;;10440329;28;20082;-63
2021/07/21 10:09:33;;;;;;;8.50;7.53;;;;;;;;;;10440241;28;20423;-63
2021/07/21 10:14:31;;;;;;;9.48;7.07;;;;;;;;;;10439742;28;20043;-64
2021/07/21 10:19:29;;;;;;;10.77;9.23;;;;;;;;;;10443407;27;20484;-64
2021/07/21 10:24:30;;;;;;;21.00;9.15;;;;;;;;;;10449292;27;20043;-63
2021/07/21 10:29:29;;;;;;;13.43;9.20;;;;;;;;;;10449143;27;20035;-63
2021/07/21 10:34:27;;;;;;;17.05;8.90;;;;;;;;;;10447466;27;20047;-63
2021/07/21 10:39:28;;;;;;;15.13;10.48;;;;;;;;;;10447697;27;20500;-64
2021/07/21 10:44:28;;;;;;;18.90;9.93;;;;;;;;;;10448566;27;20051;-64
2021/07/21 10:49:30;;;;;;;11.77;8.40;;;;;;;;;;10447572;27;20058;-64
2021/07/21 10:54:47;;;;;;;17.10;9.35;;;;;;;;;;10448172;27;20043;-64
2021/07/21 10:59:48;;;;;;;19.73;14.95;;;;;;;;;;10448095;27;20079;-63
2021/07/21 11:04:47;;;;;;;19.80;10.40;;;;;;;;;;10447450;27;20480;-64
2021/07/21 11:09:49;;;;;;;16.33;9.98;;;;;;;;;;10447623;27;20075;-63
2021/07/21 11:14:55;;;;;;;23.37;9.97;;;;;;;;;;10446972;27;20474;-64
2021/07/21 11:19:53;;;;;;;17.73;9.48;;;;;;;;;;10446203;27;20066;-64
2021/07/21 11:25:16;;;;;;;12.18;9.80;;;;;;;;;;10447065;27;20503;-64
2021/07/21 11:30:39;;;;;;;15.05;9.48;;;;;;;;;;10418931;27;20074;-64
2021/07/21 11:35:42;;;;;;;17.48;9.23;;;;;;;;;;10445674;27;20043;-63
2021/07/21 11:40:43;;;;;;;14.70;8.30;;;;;;;;;;10445317;27;20506;-64
2021/07/21 11:45:43;;;;;;;14.77;9.20;;;;;;;;;;10426439;27;20089;-64
2021/07/21 11:50:41;;;;;;;12.00;9.85;;;;;;;;;;10445054;27;20470;-63
2021/07/21 11:55:41;;;;;;;15.00;9.50;;;;;;;;;;10444731;27;20039;-64
2021/07/21 12:00:40;;;;;;;15.25;9.20;;;;;;;;;;10425382;27;20075;-63
2021/07/21 12:05:52;;;;;;;15.65;9.68;;;;;;;;;;10443687;27;20047;-63
2021/07/21 12:10:52;;;;;;;11.10;9.70;;;;;;;;;;10444079;27;20498;-64
2021/07/21 12:15:58;;;;;;;14.82;9.75;;;;;;;;;;10444138;27;20062;-63
2021/07/21 12:21:05;;;;;;;14.75;9.93;;;;;;;;;;10443916;27;20062;-63
2021/07/21 12:26:07;;;;;;;16.60;11.13;;;;;;;;;;10443816;27;20054;-63
2021/07/21 12:31:05;;;;;;;14.88;10.77;;;;;;;;;;10443258;27;20058;-63
2021/07/21 12:36:09;;;;;;;17.20;9.77;;;;;;;;;;10442197;27;20046;-63
2021/07/21 12:41:08;;;;;;;16.30;10.98;;;;;;;;;;10441772;27;20539;-64
2021/07/21 12:46:15;;;;;;;10.82;9.73;;;;;;;;;;10442952;27;20436;-64
2021/07/21 12:51:15;;;;;;;12.80;10.60;;;;;;;;;;10442827;27;20051;-63
2021/07/21 12:56:14;;;;;;;14.00;10.25;;;;;;;;;;10441188;27;20054;-64
2021/07/21 13:01:12;;;;;;;10.52;9.23;;;;;;;;;;10442008;27;20075;-63
2021/07/21 13:06:11;;;;;;;14.20;9.57;;;;;;;;;;10442028;27;20043;-64
2021/07/21 13:11:11;;;;;;;13.13;9.80;;;;;;;;;;10423508;27;20051;-64
2021/07/21 13:16:11;;;;;;;12.50;9.23;;;;;;;;;;10422899;27;20050;-64
2021/07/21 13:21:22;;;;;;;11.52;10.27;;;;;;;;;;10440610;27;20552;-64
2021/07/21 13:26:22;;;;;;;15.85;9.90;;;;;;;;;;10441691;27;20506;-63
2021/07/21 13:31:21;;;;;;;11.38;9.77;;;;;;;;;;10440246;27;20065;-64
2021/07/21 13:36:20;;;;;;;15.50;9.73;;;;;;;;;;10440836;27;20050;-63
2021/07/21 13:41:27;;;;;;;12.40;9.82;;;;;;;;;;10440737;27;20086;-63
2021/07/21 13:46:27;;;;;;;14.50;10.50;;;;;;;;;;10440101;27;20058;-63
2021/07/21 13:51:32;;;;;;;11.63;9.90;;;;;;;;;;10440074;27;20405;-63
2021/07/21 13:56:32;;;;;;;12.50;8.82;;;;;;;;;;10439962;27;20035;-64
2021/07/21 14:01:31;;;;;;;12.00;9.68;;;;;;;;;;10439182;28;20051;-64
2021/07/21 14:06:29;;;;;;;18.13;10.18;;;;;;;;;;10440209;28;20427;-64
2021/07/21 14:11:28;;;;;;;16.52;10.27;;;;;;;;;;10440231;28;20075;-63
2021/07/21 14:16:28;;;;;;;22.98;11.00;;;;;;;;;;10440023;28;20043;-63
2021/07/21 14:21:26;;;;;;;18.52;9.52;;;;;;;;;;10439062;28;20088;-64
2021/07/21 14:26:24;;;;;;;15.50;10.25;;;;;;;;;;10439869;28;20050;-64
2021/07/21 14:31:23;;;;;;;16.70;10.73;;;;;;;;;;10439549;27;20054;-63
2021/07/21 14:36:37;;;;;;;19.25;11.25;;;;;;;;;;10438243;28;20039;-63
2021/07/21 14:41:36;;;;;;;14.15;11.77;;;;;;;;;;10439200;28;20078;-63
2021/07/21 14:46:34;;;;;;;13.63;10.88;;;;;;;;;;10439663;28;20043;-63
2021/07/21 14:51:41;;;;;;;14.70;10.07;;;;;;;;;;10439188;28;20055;-63
2021/07/21 14:56:40;;;;;;;17.10;9.95;;;;;;;;;;10438957;28;20058;-63
2021/07/21 15:01:38;;;;;;;18.00;11.65;;;;;;;;;;10438631;28;20519;-64
2021/07/21 15:06:38;;;;;;;15.60;10.63;;;;;;;;;;10444073;27;20039;-63
2021/07/21 15:11:40;;;;;;;26.50;11.10;;;;;;;;;;10446084;27;20050;-64
2021/07/21 15:16:39;;;;;;;18.77;9.57;;;;;;;;;;10446628;27;20055;-63
2021/07/21 15:21:39;;;;;;;14.93;9.63;;;;;;;;;;10446390;27;20339;-64
2021/07/21 15:26:39;;;;;;;22.20;9.80;;;;;;;;;;10433543;27;20043;-64
2021/07/21 15:31:39;;;;;;;14.10;9.68;;;;;;;;;;10445935;27;20066;-64
2021/07/21 15:36:38;;;;;;;17.48;11.38;;;;;;;;;;10445802;27;20050;-63
2021/07/21 15:41:36;;;;;;;14.13;11.35;;;;;;;;;;10445720;27;20039;-64
2021/07/21 15:46:36;;;;;;;22.42;11.25;;;;;;;;;;10444994;27;20043;-64
2021/07/21 15:51:35;;;;;;;17.17;11.25;;;;;;;;;;10445386;27;20085;-64
2021/07/21 15:56:33;;;;;;;20.58;13.50;;;;;;;;;;10442669;27;20063;-63
2021/07/21 16:01:34;;;;;;;18.95;13.35;;;;;;;;;;10443155;27;20071;-64
2021/07/21 16:06:35;;;;;;;18.30;12.32;;;;;;;;;;10443117;27;20073;-62
2021/07/21 16:11:33;;;;;;;12.85;6.45;;;;;;;;;;10397761;27;20047;-62
2021/07/21 16:16:32;;;;;;;11.02;4.22;;;;;;;;;;10409632;27;20081;-64
2021/07/21 16:21:30;;;;;;;6.90;3.97;;;;;;;;;;10401096;28;20097;-63
2021/07/21 16:26:30;;;;;;;11.82;7.63;;;;;;;;;;10413655;27;20059;-62
2021/07/21 16:31:28;;;;;;;14.63;6.20;;;;;;;;;;10413859;27;20055;-62
2021/07/21 16:36:27;;;;;;;9.93;6.22;;;;;;;;;;10401493;28;20411;-63
2021/07/21 16:41:25;;;;;;;15.98;7.45;;;;;;;;;;10400811;28;20411;-63
2021/07/21 16:46:25;;;;;;;12.43;7.43;;;;;;;;;;10420533;27;20039;-63
2021/07/21 16:51:23;;;;;;;11.90;5.03;;;;;;;;;;10441258;27;20402;-66
2021/07/21 16:56:22;;;;;;;9.30;4.70;;;;;;;;;;10439831;27;20050;-66
2021/07/21 17:01:21;;;;;;;12.52;4.53;;;;;;;;;;10422539;27;20070;-65
2021/07/21 17:06:21;;;;;;;13.45;5.85;;;;;;;;;;10440490;27;20031;-67
2021/07/21 17:11:20;;;;;;;33.67;8.00;;;;;;;;;;10431617;27;20066;-65
2021/07/21 17:16:18;;;;;;;26.70;13.85;;;;;;;;;;10422191;27;20071;-65
2021/07/21 17:21:17;;;;;;;11.98;9.85;;;;;;;;;;10434853;27;20533;-65
2021/07/21 17:26:17;;;;;;;13.35;6.93;;;;;;;;;;10437279;27;20081;-66
2021/07/21 17:31:15;;;;;;;11.57;6.80;;;;;;;;;;10436509;27;20468;-65
2021/07/21 17:36:15;;;;;;;14.90;6.13;;;;;;;;;;10440334;27;20050;-66
2021/07/21 17:41:13;;;;;;;17.83;6.32;;;;;;;;;;10418443;27;20534;-66
2021/07/21 17:46:13;;;;;;;6.70;5.75;;;;;;;;;;10414945;27;20071;-65
2021/07/21 17:51:12;;;;;;;11.48;5.45;;;;;;;;;;10410900;27;20440;-65
2021/07/21 17:56:10;;;;;;;12.50;6.13;;;;;;;;;;10418370;27;20066;-65
2021/07/21 18:01:08;;;;;;;12.90;6.40;;;;;;;;;;10409738;27;20105;-65
2021/07/21 18:06:08;;;;;;;12.75;6.30;;;;;;;;;;10398388;28;20044;-66
2021/07/21 18:11:07;;;;;;;12.65;5.85;;;;;;;;;;10398640;28;20077;-65
2021/07/21 18:16:05;;;;;;;16.50;6.22;;;;;;;;;;10381998;28;20078;-65
2021/07/21 18:21:03;;;;;;;11.38;6.70;;;;;;;;;;10405042;28;20529;-66
2021/07/21 18:26:04;;;;;;;14.02;6.63;;;;;;;;;;10408307;28;20067;-66
2021/07/21 18:31:02;;;;;;;9.82;5.53;;;;;;;;;;10420814;28;20075;-65
2021/07/21 18:36:00;;;;;;;10.63;6.18;;;;;;;;;;10430050;28;20492;-66
2021/07/21 18:40:59;;;;;;;9.45;6.97;;;;;;;;;;10442511;27;20075;-65
2021/07/21 18:46:00;;;;;;;11.35;6.85;;;;;;;;;;10406957;27;20066;-65
2021/07/21 18:50:58;;;;;;;7.25;5.68;;;;;;;;;;10426324;27;20506;-66
2021/07/21 18:55:56;;;;;;;11.88;5.40;;;;;;;;;;10437860;27;20059;-65
2021/07/21 19:00:56;;;;;;;9.32;5.63;;;;;;;;;;10434396;27;20074;-65
2021/07/21 19:05:57;;;;;;;8.82;5.63;;;;;;;;;;10430077;27;20263;-66
2021/07/21 19:10:55;;;;;;;12.85;5.43;;;;;;;;;;10422217;27;20118;-65
2021/07/21 19:15:53;;;;;;;6.95;5.53;;;;;;;;;;10419201;27;20075;-65
2021/07/21 19:20:52;;;;;;;11.73;6.47;;;;;;;;;;10414361;27;20048;-64
2021/07/21 19:25:51;;;;;;;14.57;6.53;;;;;;;;;;10421757;27;20067;-66
2021/07/21 19:30:50;;;;;;;7.68;6.10;;;;;;;;;;10411722;27;20327;-65
2021/07/21 19:35:48;;;;;;;8.60;7.28;;;;;;;;;;10417856;27;20091;-64
2021/07/21 19:40:47;;;;;;;8.10;5.25;;;;;;;;;;10420892;27;20325;-63
2021/07/21 19:45:47;;;;;;;6.70;5.43;;;;;;;;;;10424667;27;20075;-65
2021/07/21 19:50:46;;;;;;;7.10;5.47;;;;;;;;;;10404598;27;20070;-65
2021/07/21 19:55:44;;;;;;;7.93;5.55;;;;;;;;;;10418278;27;20527;-65
2021/07/21 20:00:42;;;;;;;12.02;6.15;;;;;;;;;;10416825;27;20074;-64
2021/07/21 20:05:42;;;;;;;7.28;6.15;;;;;;;;;;10419272;27;20080;-64
2021/07/21 20:10:41;;;;;;;8.07;5.60;;;;;;;;;;10421936;27;20075;-66
2021/07/21 20:15:39;;;;;;;14.98;6.53;;;;;;;;;;10401289;28;20040;-65
2021/07/21 20:20:37;;;;;;;8.35;5.57;;;;;;;;;;10401928;28;20050;-65
2021/07/21 20:25:37;;;;;;;6.20;4.63;;;;;;;;;;10401710;28;20044;-65
2021/07/21 20:30:37;;;;;;;9.65;4.35;;;;;;;;;;10413983;27;20043;-65
2021/07/21 20:35:35;;;;;;;7.35;3.97;;;;;;;;;;10400733;28;20105;-66
2021/07/21 20:40:34;;;;;;;7.85;4.10;;;;;;;;;;10414084;27;20035;-65
2021/07/21 20:45:34;;;;;;;8.50;3.20;;;;;;;;;;10413372;27;20075;-65
2021/07/21 20:50:32;;;;;;;5.10;2.83;;;;;;;;;;10400060;28;20527;-65
2021/07/21 20:55:31;;;;;;;9.15;2.83;;;;;;;;;;10443385;27;20035;-66
2021/07/21 21:00:29;;;;;;;3.63;2.42;;;;;;;;;;10484825;27;20040;-66
2021/07/21 21:05:29;;;;;;;3.88;2.47;;;;;;;;;;10484143;27;20113;-65
2021/07/21 21:10:27;;;;;;;4.47;2.33;;;;;;;;;;10484339;27;20042;-66
2021/07/21 21:15:26;;;;;;;3.30;2.53;;;;;;;;;;10464984;27;20046;-65
2021/07/21 21:20:24;;;;;;;4.53;2.30;;;;;;;;;;10483788;27;20058;-65
2021/07/21 21:25:24;;;;;;;4.47;2.22;;;;;;;;;;10483278;27;20466;-65
2021/07/21 21:30:22;;;;;;;2.45;1.90;;;;;;;;;;10463910;27;20055;-65
2021/07/21 21:35:21;;;;;;;4.88;3.13;;;;;;;;;;10482877;27;20522;-66
2021/07/21 21:40:19;;;;;;;5.72;1.80;;;;;;;;;;10484215;27;20039;-65
2021/07/21 21:45:19;;;;;;;4.18;2.03;;;;;;;;;;10483908;27;20180;-66
2021/07/21 21:50:17;;;;;;;3.60;1.83;;;;;;;;;;10483053;27;20055;-67
2021/07/21 21:55:16;;;;;;;4.57;1.63;;;;;;;;;;10464178;27;20054;-66
2021/07/21 22:00:15;;;;;;;2.58;1.60;;;;;;;;;;10483707;27;20039;-66
2021/07/21 22:05:16;;;;;;;3.05;1.50;;;;;;;;;;10483548;27;20085;-67
2021/07/21 22:10:16;;;;;;;4.03;2.17;;;;;;;;;;10483481;27;20039;-68
2021/07/21 22:15:16;;;;;;;3.28;2.13;;;;;;;;;;10486708;27;20083;-67
2021/07/21 22:20:17;;;;;;;2.40;1.73;;;;;;;;;;10492111;27;20425;-68
2021/07/21 22:25:18;;;;;;;2.20;2.00;;;;;;;;;;10492020;27;20074;-66
2021/07/21 22:30:18;;;;;;;6.05;2.17;;;;;;;;;;10491557;27;20411;-66
2021/07/21 22:35:18;;;;;;;2.55;1.60;;;;;;;;;;10490090;27;20054;-66
2021/07/21 22:40:16;;;;;;;1.92;1.50;;;;;;;;;;10490563;27;20054;-66
2021/07/21 22:45:16;;;;;;;4.20;1.63;;;;;;;;;;10490960;27;20477;-67
2021/07/21 22:50:16;;;;;;;5.32;1.80;;;;;;;;;;10489450;27;20147;-64
2021/07/21 22:55:17;;;;;;;3.10;1.88;;;;;;;;;;10490778;27;20046;-65
2021/07/21 23:00:22;;;;;;;2.38;1.73;;;;;;;;;;10470961;27;20042;-66
2021/07/21 23:05:39;;;;;;;4.07;1.88;;;;;;;;;;10470129;27;20527;-66
2021/07/21 23:10:56;;;;;;;2.88;2.35;;;;;;;;;;10489697;27;20039;-66
2021/07/21 23:15:57;;;;;;;2.22;1.50;;;;;;;;;;10488979;27;20411;-66
2021/07/21 23:20:56;;;;;;;3.05;1.80;;;;;;;;;;10488822;27;20043;-66
2021/07/21 23:25:55;;;;;;;6.90;2.10;;;;;;;;;;10469874;27;20047;-66
2021/07/21 23:30:54;;;;;;;3.10;2.13;;;;;;;;;;10488091;27;20515;-66
2021/07/21 23:35:54;;;;;;;4.32;2.60;;;;;;;;;;10488139;27;20039;-66
2021/07/21 23:40:53;;;;;;;2.03;1.83;;;;;;;;;;10487323;27;20050;-65
2021/07/21 23:45:51;;;;;;;3.25;1.60;;;;;;;;;;10487308;27;20051;-66
2021/07/21 23:50:50;;;;;;;3.30;1.90;;;;;;;;;;10487566;27;20034;-65
2021/07/21 23:55:49;;;;;;;2.30;1.85;;;;;;;;;;10486393;27;20076;-66
